Time;durP1;ratioP1;P1;durP2;ratioP2;P2;SDS_P1;SDS_P2;PMS_P1;PMS_P2;Temp;Humidity;BMP_temperature;BMP_pressure;BME280_temperature;BME280_humidity;BME280_pressure;Samples;Min_cycle;Max_cycle;Signal;HPM_P1;HPM_P2
2024/01/01 00:01:07;;;;;;;2.63;2.00;;;17.50;71.30;;;;;;4985041;28;20039;-81
2024/01/01 00:03:32;;;;;;;2.75;1.95;;;17.50;71.30;;;;;;4994998;28;20133;-81
2024/01/01 00:05:58;;;;;;;3.20;1.95;;;17.50;71.50;;;;;;4985317;28;20057;-81
2024/01/01 00:08:24;;;;;;;2.03;1.88;;;17.50;72.20;;;;;;5007878;28;20101;-81
2024/01/01 00:10:50;;;;;;;2.10;1.90;;;17.50;71.40;;;;;;5009149;28;20166;-81
2024/01/01 00:13:15;;;;;;;2.67;2.00;;;17.50;71.30;;;;;;4991556;28;20085;-81
2024/01/01 00:15:41;;;;;;;2.75;2.08;;;17.50;71.30;;;;;;4989763;28;20042;-81
2024/01/01 00:18:06;;;;;;;1.90;1.60;;;17.40;71.20;;;;;;4983180;28;20563;-81
2024/01/01 00:20:32;;;;;;;2.05;1.80;;;17.40;71.30;;;;;;4967985;28;20043;-81
2024/01/01 00:22:57;;;;;;;2.38;1.70;;;17.40;71.20;;;;;;4966725;28;20090;-81
2024/01/01 00:25:23;;;;;;;2.25;1.75;;;17.40;71.30;;;;;;4993699;28;20034;-81
2024/01/01 00:27:49;;;;;;;2.60;1.88;;;17.40;71.30;;;;;;4990415;28;20150;-81
2024/01/01 00:30:14;;;;;;;2.30;1.75;;;17.40;71.20;;;;;;4991271;28;20044;-81
2024/01/01 00:32:40;;;;;;;2.28;1.60;;;17.40;71.30;;;;;;4993165;28;20420;-81
2024/01/01 00:35:06;;;;;;;2.47;1.77;;;17.40;71.20;;;;;;4983452;28;20050;-81
2024/01/01 00:37:32;;;;;;;1.65;1.48;;;17.40;71.20;;;;;;5018397;28;20508;-81
2024/01/01 00:39:57;;;;;;;1.48;1.38;;;17.40;71.10;;;;;;4996931;28;20046;-81
2024/01/01 00:42:23;;;;;;;3.83;1.80;;;17.40;71.20;;;;;;4969677;28;20409;-81
2024/01/01 00:44:48;;;;;;;1.38;1.27;;;17.30;71.10;;;;;;4963997;28;20405;-81
2024/01/01 00:47:14;;;;;;;2.60;1.85;;;17.30;72.00;;;;;;4964989;28;20126;-81
2024/01/01 00:49:39;;;;;;;2.30;1.75;;;17.30;71.10;;;;;;4974818;28;20050;-81
2024/01/01 00:52:05;;;;;;;2.08;1.67;;;17.30;71.90;;;;;;4980000;28;20038;-81
2024/01/01 00:54:31;;;;;;;1.90;1.73;;;17.30;71.10;;;;;;4994506;28;20046;-81
2024/01/01 00:56:57;;;;;;;1.60;1.50;;;17.30;71.00;;;;;;4997626;28;20078;-81
2024/01/01 00:59:22;;;;;;;2.00;1.70;;;17.30;71.00;;;;;;4981882;28;20407;-81
2024/01/01 01:01:48;;;;;;;2.42;1.77;;;17.30;71.10;;;;;;4989869;28;20039;-81
2024/01/01 01:04:14;;;;;;;1.70;1.60;;;17.30;71.10;;;;;;4989285;28;20061;-81
2024/01/01 01:06:40;;;;;;;2.08;1.60;;;17.30;71.10;;;;;;4991407;28;20589;-81
2024/01/01 01:09:05;;;;;;;2.17;1.98;;;17.30;71.20;;;;;;4978770;28;20066;-81
2024/01/01 01:11:31;;;;;;;1.52;1.27;;;17.20;71.00;;;;;;4988003;28;20038;-81
2024/01/01 01:13:57;;;;;;;2.53;2.00;;;17.20;71.00;;;;;;4987798;28;20053;-81
2024/01/01 01:16:23;;;;;;;2.33;1.60;;;17.20;71.00;;;;;;4992301;28;20093;-81
2024/01/01 01:18:49;;;;;;;2.75;1.70;;;17.20;71.00;;;;;;4999382;28;20046;-81
2024/01/01 01:21:14;;;;;;;2.22;1.58;;;17.20;71.10;;;;;;4992467;28;20042;-81
2024/01/01 01:23:41;;;;;;;2.05;1.40;;;17.20;71.10;;;;;;5006319;28;20576;-81
2024/01/01 01:26:06;;;;;;;1.48;1.13;;;17.20;71.10;;;;;;4995149;28;20429;-81
2024/01/01 01:28:32;;;;;;;2.47;1.40;;;17.20;71.20;;;;;;5003390;28;20510;-81
2024/01/01 01:30:58;;;;;;;2.15;1.77;;;17.20;71.00;;;;;;4998341;28;20503;-81
2024/01/01 01:33:23;;;;;;;2.03;1.70;;;17.20;71.10;;;;;;4996846;28;20173;-81
2024/01/01 01:35:49;;;;;;;1.33;1.23;;;17.20;71.10;;;;;;4979381;28;20033;-81
2024/01/01 01:38:14;;;;;;;2.17;1.42;;;17.20;71.10;;;;;;5009222;28;20042;-81
2024/01/01 01:40:40;;;;;;;1.83;1.17;;;17.20;71.00;;;;;;4995977;28;20054;-82
2024/01/01 01:43:22;;;;;;;1.15;1.05;;;17.20;71.00;;;;;;4988009;28;20519;-81
2024/01/01 01:45:48;;;;;;;1.42;1.33;;;17.10;71.00;;;;;;4967272;28;20501;-81
2024/01/01 01:48:14;;;;;;;2.30;1.52;;;17.20;71.10;;;;;;4995909;28;20139;-81
2024/01/01 01:50:40;;;;;;;1.60;1.15;;;17.10;71.70;;;;;;4993389;28;20057;-81
2024/01/01 01:53:06;;;;;;;1.27;0.93;;;17.10;71.00;;;;;;4990126;28;20404;-81
2024/01/01 01:55:31;;;;;;;1.35;1.25;;;17.10;70.90;;;;;;4962846;28;20540;-81
2024/01/01 01:57:57;;;;;;;1.63;1.20;;;17.10;71.00;;;;;;4968171;28;20078;-81
2024/01/01 02:00:22;;;;;;;1.35;1.02;;;17.10;71.00;;;;;;4976623;28;20237;-81
2024/01/01 02:02:48;;;;;;;1.50;1.20;;;17.10;71.00;;;;;;4956776;28;20047;-81
2024/01/01 02:05:14;;;;;;;1.40;1.30;;;17.10;71.00;;;;;;4954093;28;20118;-81
2024/01/01 02:07:40;;;;;;;1.83;1.65;;;17.10;71.10;;;;;;4972212;28;20046;-82
2024/01/01 02:10:06;;;;;;;1.42;1.33;;;17.10;71.00;;;;;;4984770;28;20058;-81
2024/01/01 02:12:31;;;;;;;1.40;1.30;;;17.10;70.50;;;;;;4976859;28;20505;-81
2024/01/01 02:14:57;;;;;;;1.50;1.10;;;17.10;70.90;;;;;;4977135;28;20063;-81
2024/01/01 02:17:23;;;;;;;1.20;1.10;;;17.10;71.70;;;;;;4972340;28;20459;-81
2024/01/01 02:19:50;;;;;;;1.27;1.00;;;17.10;70.90;;;;;;4960210;28;20046;-81
2024/01/01 02:22:16;;;;;;;1.30;1.13;;;17.00;70.70;;;;;;4977675;28;20209;-81
2024/01/01 02:24:41;;;;;;;1.13;1.02;;;17.00;70.80;;;;;;4980289;28;20750;-82
2024/01/01 02:27:07;;;;;;;2.00;1.42;;;17.10;70.60;;;;;;4979996;28;20508;-81
2024/01/01 02:29:32;;;;;;;1.50;1.10;;;17.00;70.90;;;;;;4959636;28;20104;-81
2024/01/01 02:31:58;;;;;;;2.03;1.10;;;17.00;70.70;;;;;;4978658;28;20405;-81
2024/01/01 02:34:24;;;;;;;1.23;1.10;;;17.00;70.50;;;;;;4956697;28;20404;-81
2024/01/01 02:36:50;;;;;;;1.27;1.17;;;17.00;70.00;;;;;;4978496;28;20045;-81
2024/01/01 02:39:16;;;;;;;1.40;1.30;;;17.00;70.10;;;;;;4975894;28;20047;-80
2024/01/01 02:41:41;;;;;;;1.17;1.08;;;17.00;70.60;;;;;;4976830;28;20125;-82
2024/01/01 02:44:07;;;;;;;1.23;1.13;;;17.00;70.80;;;;;;4979094;28;20516;-81
2024/01/01 02:46:32;;;;;;;1.23;0.90;;;17.00;70.80;;;;;;4624615;28;9999679;-83
2024/01/01 02:48:58;;;;;;;1.23;0.90;;;17.00;70.90;;;;;;4975301;28;20042;-82
2024/01/01 02:51:24;;;;;;;1.00;0.90;;;17.00;69.30;;;;;;4977920;28;20424;-84
2024/01/01 02:53:49;;;;;;;2.65;1.13;;;17.10;69.30;;;;;;4967494;28;20398;-82
2024/01/01 02:56:19;;;;;;;1.10;1.00;;;17.10;69.80;;;;;;4980806;28;20086;-81
2024/01/01 02:58:45;;;;;;;1.10;1.00;;;17.10;70.30;;;;;;4996066;28;20085;-81
2024/01/01 03:01:10;;;;;;;3.80;1.13;;;17.00;70.50;;;;;;4975978;28;20066;-82
2024/01/01 03:03:36;;;;;;;1.00;0.80;;;17.00;70.70;;;;;;4974781;28;20046;-81
2024/01/01 03:06:01;;;;;;;2.10;0.90;;;17.00;70.50;;;;;;4974043;28;20065;-83
2024/01/01 03:08:28;;;;;;;1.17;0.90;;;17.00;70.90;;;;;;4971886;28;20550;-83
2024/01/01 03:10:53;;;;;;;0.88;0.80;;;16.90;71.10;;;;;;4970777;28;20070;-84
2024/01/01 03:13:19;;;;;;;1.40;0.90;;;17.00;71.60;;;;;;4985896;28;20105;-84
2024/01/01 03:15:44;;;;;;;2.00;1.17;;;17.00;70.40;;;;;;4984543;28;20524;-84
2024/01/01 03:18:17;;;;;;;1.50;1.05;;;17.00;71.30;;;;;;4970008;28;20536;-84
2024/01/01 03:20:42;;;;;;;1.08;0.90;;;17.00;71.10;;;;;;4991049;28;20057;-84
2024/01/01 03:23:08;;;;;;;1.10;1.00;;;17.00;71.30;;;;;;4993001;28;20046;-83
2024/01/01 03:25:33;;;;;;;1.10;0.85;;;17.00;71.20;;;;;;4983626;28;20263;-83
2024/01/01 03:27:59;;;;;;;0.88;0.73;;;17.00;71.60;;;;;;4976952;28;20030;-83
2024/01/01 03:30:25;;;;;;;0.73;0.70;;;16.90;71.90;;;;;;4994500;28;20581;-84
2024/01/01 03:32:50;;;;;;;0.80;0.80;;;16.90;72.10;;;;;;4994761;28;20035;-84
2024/01/01 03:35:16;;;;;;;1.30;0.70;;;16.90;72.30;;;;;;4991879;28;20054;-85
2024/01/01 03:37:42;;;;;;;0.88;0.80;;;16.90;72.30;;;;;;4976474;28;20069;-84
2024/01/01 03:40:09;;;;;;;0.80;0.80;;;16.90;71.90;;;;;;4986895;28;20571;-84
2024/01/01 03:42:34;;;;;;;1.02;0.80;;;16.90;72.30;;;;;;4983608;28;20156;-84
2024/01/01 03:45:00;;;;;;;1.58;0.95;;;16.90;71.60;;;;;;4974416;28;20572;-83
2024/01/01 03:47:26;;;;;;;0.98;0.90;;;16.90;72.50;;;;;;4993072;28;20077;-84
2024/01/01 03:49:51;;;;;;;1.10;1.00;;;16.90;71.90;;;;;;4987396;28;20049;-84
2024/01/01 03:52:17;;;;;;;1.77;0.90;;;16.90;72.40;;;;;;4985297;28;20057;-84
2024/01/01 03:54:43;;;;;;;1.00;0.80;;;16.90;72.40;;;;;;4992840;28;20041;-83
2024/01/01 03:57:08;;;;;;;1.83;0.95;;;16.90;72.30;;;;;;4978569;28;20168;-84
2024/01/01 03:59:35;;;;;;;1.00;0.90;;;16.90;71.90;;;;;;4986919;28;20042;-84
2024/01/01 04:02:00;;;;;;;1.40;0.80;;;16.90;71.80;;;;;;4972421;28;20488;-83
2024/01/01 04:04:26;;;;;;;1.00;0.90;;;16.90;71.90;;;;;;4981928;28;20073;-82
2024/01/01 04:06:52;;;;;;;1.27;0.82;;;16.90;71.50;;;;;;4987398;28;20388;-83
2024/01/01 04:09:18;;;;;;;1.02;0.70;;;16.90;71.80;;;;;;4965893;28;20039;-83
2024/01/01 04:11:44;;;;;;;1.85;1.05;;;16.90;71.50;;;;;;4988956;28;20041;-83
2024/01/01 04:14:09;;;;;;;1.27;0.80;;;16.90;71.60;;;;;;4993570;28;20037;-83
2024/01/01 04:16:36;;;;;;;1.60;0.65;;;16.90;71.90;;;;;;4986855;28;20523;-83
2024/01/01 04:19:01;;;;;;;0.77;0.60;;;16.90;72.50;;;;;;5003866;28;20099;-82
2024/01/01 04:21:27;;;;;;;0.95;0.80;;;16.90;71.90;;;;;;4995249;28;20427;-83
2024/01/01 04:23:55;;;;;;;0.77;0.77;;;16.80;72.60;;;;;;4976808;28;20563;-83
2024/01/01 04:26:21;;;;;;;1.02;0.93;;;16.80;72.50;;;;;;4996738;28;20049;-83
2024/01/01 04:28:46;;;;;;;1.17;0.90;;;16.80;71.40;;;;;;4984062;28;20064;-83
2024/01/01 04:31:12;;;;;;;1.50;0.70;;;16.80;71.70;;;;;;4987437;28;20058;-83
2024/01/01 04:33:37;;;;;;;1.13;0.63;;;16.80;71.60;;;;;;4997397;28;20539;-82
2024/01/01 04:36:03;;;;;;;0.80;0.75;;;16.80;71.80;;;;;;4992583;28;20034;-82
2024/01/01 04:38:29;;;;;;;0.80;0.70;;;16.80;71.80;;;;;;4990287;28;20085;-83
2024/01/01 04:40:55;;;;;;;0.90;0.82;;;16.80;72.10;;;;;;4998683;28;20054;-85
2024/01/01 04:43:20;;;;;;;1.00;0.70;;;16.80;71.70;;;;;;4991211;28;20631;-84
2024/01/01 04:45:46;;;;;;;1.73;1.02;;;16.80;71.80;;;;;;4993718;28;20731;-84
2024/01/01 04:48:11;;;;;;;0.85;0.75;;;16.80;71.70;;;;;;4998109;28;20054;-83
2024/01/01 04:50:37;;;;;;;1.23;0.80;;;16.80;73.20;;;;;;4978292;28;20471;-83
2024/01/01 04:53:03;;;;;;;1.27;0.80;;;16.80;71.80;;;;;;5000211;28;20133;-84
2024/01/01 04:55:28;;;;;;;0.90;0.68;;;16.80;71.70;;;;;;4992047;28;20046;-84
2024/01/01 04:57:54;;;;;;;2.17;1.20;;;16.80;73.30;;;;;;4997851;28;20049;-84
2024/01/01 05:00:20;;;;;;;0.95;0.80;;;16.80;71.90;;;;;;4992641;28;20043;-83
2024/01/01 05:02:45;;;;;;;0.93;0.80;;;16.80;72.30;;;;;;5000396;28;20042;-83
2024/01/01 05:05:11;;;;;;;0.93;0.80;;;16.80;71.80;;;;;;4996931;28;20053;-83
2024/01/01 05:07:37;;;;;;;1.83;0.65;;;16.80;71.80;;;;;;4997050;28;20045;-83
2024/01/01 05:10:03;;;;;;;0.73;0.73;;;16.80;72.20;;;;;;4982652;28;20475;-84
2024/01/01 05:12:29;;;;;;;0.70;0.70;;;16.80;72.50;;;;;;4995758;28;20085;-84
2024/01/01 05:14:54;;;;;;;1.15;0.60;;;16.80;71.80;;;;;;4996223;28;20253;-84
2024/01/01 05:17:20;;;;;;;1.38;0.55;;;16.80;71.60;;;;;;4996634;28;20440;-84
2024/01/01 05:19:46;;;;;;;1.00;0.90;;;16.80;72.30;;;;;;5004866;28;20046;-84
2024/01/01 05:22:11;;;;;;;1.00;0.68;;;16.80;71.80;;;;;;4996026;28;20604;-84
2024/01/01 05:24:37;;;;;;;0.95;0.75;;;16.80;71.80;;;;;;5002379;28;20068;-84
2024/01/01 05:27:07;;;;;;;1.23;0.80;;;16.80;73.20;;;;;;4976447;28;20038;-84
2024/01/01 05:29:33;;;;;;;2.10;0.80;;;16.70;71.70;;;;;;4993768;28;20074;-83
2024/01/01 05:31:58;;;;;;;1.35;0.65;;;16.70;71.50;;;;;;4996079;28;20064;-84
2024/01/01 05:34:24;;;;;;;1.23;0.75;;;16.70;72.10;;;;;;4994317;28;20500;-84
2024/01/01 05:36:50;;;;;;;0.57;0.50;;;16.70;71.70;;;;;;4981839;28;20092;-83
2024/01/01 05:39:15;;;;;;;0.90;0.75;;;16.70;71.70;;;;;;4996743;28;20058;-83
2024/01/01 05:41:41;;;;;;;0.77;0.70;;;16.70;71.60;;;;;;4997942;28;20046;-83
2024/01/01 05:44:06;;;;;;;0.80;0.57;;;16.70;71.60;;;;;;4972862;28;20126;-83
2024/01/01 05:46:32;;;;;;;1.30;0.70;;;16.70;71.60;;;;;;5006297;28;20504;-83
2024/01/01 05:48:58;;;;;;;0.68;0.60;;;16.70;71.50;;;;;;4998473;28;20092;-84
2024/01/01 05:51:24;;;;;;;0.98;0.68;;;16.70;71.70;;;;;;4994632;28;20467;-83
2024/01/01 05:53:49;;;;;;;1.00;0.80;;;16.70;71.50;;;;;;4992610;28;20054;-84
2024/01/01 05:56:15;;;;;;;1.00;0.70;;;16.70;71.50;;;;;;4978039;28;20431;-84
2024/01/01 05:58:41;;;;;;;0.70;0.55;;;16.70;71.70;;;;;;4993134;28;20038;-83
2024/01/01 06:01:06;;;;;;;0.82;0.80;;;16.70;71.60;;;;;;4987927;28;20096;-83
2024/01/01 06:03:32;;;;;;;0.60;0.55;;;16.70;71.40;;;;;;4986826;28;20058;-83
2024/01/01 06:05:57;;;;;;;0.98;0.47;;;16.70;71.60;;;;;;4987121;28;20408;-83
2024/01/01 06:08:23;;;;;;;0.80;0.80;;;16.70;71.50;;;;;;4986647;28;20046;-83
2024/01/01 06:10:48;;;;;;;0.98;0.70;;;16.70;71.50;;;;;;4998703;28;20042;-84
2024/01/01 06:13:14;;;;;;;0.60;0.60;;;16.60;72.20;;;;;;4977330;28;20046;-83
2024/01/01 06:15:40;;;;;;;1.67;0.52;;;16.60;72.20;;;;;;4976654;28;20045;-84
2024/01/01 06:18:06;;;;;;;1.40;0.57;;;16.60;71.40;;;;;;4992079;28;20069;-83
2024/01/01 06:20:32;;;;;;;0.60;0.60;;;16.60;71.40;;;;;;4977717;28;20069;-84
2024/01/01 06:22:57;;;;;;;1.15;0.63;;;16.60;71.50;;;;;;4995163;28;20083;-84
2024/01/01 06:25:23;;;;;;;1.15;0.60;;;16.60;71.60;;;;;;4992887;28;20097;-85
2024/01/01 06:27:50;;;;;;;0.80;0.60;;;16.60;71.50;;;;;;4988653;28;20077;-83
2024/01/01 06:30:15;;;;;;;2.10;0.60;;;16.60;71.50;;;;;;5000179;28;20046;-84
2024/01/01 06:32:41;;;;;;;0.80;0.50;;;16.60;71.60;;;;;;4976374;28;20054;-83
2024/01/01 06:35:07;;;;;;;0.85;0.60;;;16.60;71.60;;;;;;4994552;28;20117;-84
2024/01/01 06:37:32;;;;;;;0.90;0.63;;;16.60;71.50;;;;;;4987374;28;20050;-84
2024/01/01 06:39:58;;;;;;;0.70;0.43;;;16.60;71.40;;;;;;4993808;28;20053;-84
2024/01/01 06:42:24;;;;;;;0.55;0.55;;;16.60;71.50;;;;;;4994844;28;20089;-84
2024/01/01 06:44:49;;;;;;;0.55;0.52;;;16.60;71.50;;;;;;4993138;28;20523;-84
2024/01/01 06:47:15;;;;;;;1.67;0.93;;;16.60;71.60;;;;;;4974738;28;20523;-84
2024/01/01 06:49:40;;;;;;;0.47;0.40;;;16.60;71.60;;;;;;4990333;28;20054;-84
2024/01/01 06:52:07;;;;;;;0.75;0.68;;;16.60;71.60;;;;;;4991033;28;20125;-84
2024/01/01 06:54:33;;;;;;;0.90;0.80;;;16.60;71.60;;;;;;4977988;28;20046;-84
2024/01/01 06:56:58;;;;;;;0.60;0.50;;;16.60;71.50;;;;;;4976606;28;20416;-84
2024/01/01 06:59:27;;;;;;;1.20;0.68;;;16.60;71.50;;;;;;4980285;28;20654;-84
2024/01/01 07:01:52;;;;;;;0.52;0.52;;;16.60;71.50;;;;;;4996893;28;20042;-84
2024/01/01 07:04:18;;;;;;;0.63;0.55;;;16.60;71.40;;;;;;4995488;28;20042;-84
2024/01/01 07:06:44;;;;;;;0.85;0.50;;;16.50;71.30;;;;;;4988281;28;20690;-84
2024/01/01 07:09:10;;;;;;;1.15;0.80;;;16.50;71.50;;;;;;4990399;28;20039;-84
2024/01/01 07:11:36;;;;;;;0.50;0.50;;;16.50;71.40;;;;;;4988210;28;20520;-84
2024/01/01 07:14:01;;;;;;;0.40;0.40;;;16.50;71.40;;;;;;4987495;28;20053;-84
2024/01/01 07:16:27;;;;;;;0.60;0.50;;;16.60;71.50;;;;;;4993320;28;20050;-83
2024/01/01 07:18:53;;;;;;;0.82;0.82;;;16.50;71.40;;;;;;4994544;28;20509;-83
2024/01/01 07:21:18;;;;;;;0.75;0.40;;;16.50;72.20;;;;;;4984484;28;20085;-83
2024/01/01 07:23:44;;;;;;;0.68;0.60;;;16.50;71.30;;;;;;4979819;28;20038;-82
2024/01/01 07:26:09;;;;;;;0.82;0.40;;;16.50;71.30;;;;;;4988743;28;20530;-83
2024/01/01 07:28:35;;;;;;;0.85;0.50;;;16.50;71.30;;;;;;4985471;28;20154;-82
2024/01/01 07:31:01;;;;;;;0.63;0.60;;;16.50;71.50;;;;;;4998949;28;20479;-83
2024/01/01 07:33:26;;;;;;;0.95;0.50;;;16.50;71.30;;;;;;4991043;28;20072;-84
2024/01/01 07:35:52;;;;;;;0.90;0.45;;;16.50;71.30;;;;;;4996874;28;20046;-83
2024/01/01 07:38:17;;;;;;;0.50;0.40;;;16.50;72.10;;;;;;5019629;28;20046;-83
2024/01/01 07:40:43;;;;;;;0.43;0.40;;;16.50;71.30;;;;;;4996553;28;20073;-83
2024/01/01 07:43:09;;;;;;;0.85;0.50;;;16.50;71.60;;;;;;4984101;28;20046;-83
2024/01/01 07:45:35;;;;;;;0.45;0.25;;;16.50;71.30;;;;;;4985343;28;20082;-82
2024/01/01 07:48:01;;;;;;;0.70;0.40;;;16.50;71.40;;;;;;4976019;28;20092;-83
2024/01/01 07:50:26;;;;;;;0.93;0.60;;;16.50;71.40;;;;;;4976782;28;20054;-83
2024/01/01 07:52:52;;;;;;;1.50;0.50;;;16.50;71.50;;;;;;4990971;28;20047;-84
2024/01/01 07:55:18;;;;;;;1.05;0.65;;;16.50;71.30;;;;;;4989915;28;20082;-84
2024/01/01 07:57:46;;;;;;;0.90;0.60;;;16.50;71.30;;;;;;5001613;28;20273;-84
2024/01/01 08:00:12;;;;;;;1.23;0.50;;;16.50;72.10;;;;;;5007654;28;20041;-84
2024/01/01 08:02:38;;;;;;;0.40;0.32;;;16.50;71.20;;;;;;5002873;28;20065;-83
2024/01/01 08:05:04;;;;;;;0.77;0.60;;;16.50;72.10;;;;;;4997082;28;20057;-84
2024/01/01 08:07:29;;;;;;;0.85;0.73;;;16.50;71.30;;;;;;4994034;28;20038;-84
2024/01/01 08:09:55;;;;;;;0.90;0.43;;;16.50;71.40;;;;;;4996771;28;20046;-84
2024/01/01 08:12:20;;;;;;;1.75;0.70;;;16.50;71.40;;;;;;4996326;28;20057;-84
2024/01/01 08:14:46;;;;;;;0.77;0.40;;;16.40;71.40;;;;;;5001029;28;20053;-84
2024/01/01 08:17:12;;;;;;;0.75;0.50;;;16.40;71.40;;;;;;4999611;28;20124;-84
2024/01/01 08:19:37;;;;;;;0.77;0.40;;;16.50;71.30;;;;;;4958425;28;20389;-84
2024/01/01 08:22:03;;;;;;;0.73;0.30;;;16.50;71.30;;;;;;4996965;28;20033;-83
2024/01/01 08:24:28;;;;;;;0.73;0.52;;;16.50;71.40;;;;;;4990550;28;20505;-83
2024/01/01 08:26:54;;;;;;;0.73;0.40;;;16.50;71.30;;;;;;4985045;28;20516;-83
2024/01/01 08:29:19;;;;;;;0.73;0.40;;;16.40;71.20;;;;;;4964708;28;20393;-83
2024/01/01 08:31:45;;;;;;;0.52;0.40;;;16.40;71.40;;;;;;4993712;28;20152;-83
2024/01/01 08:34:10;;;;;;;0.55;0.55;;;16.40;71.40;;;;;;4985252;28;20073;-84
2024/01/01 08:36:36;;;;;;;0.43;0.38;;;16.40;71.20;;;;;;5008150;28;20046;-84
2024/01/01 08:39:03;;;;;;;1.02;0.55;;;16.40;71.10;;;;;;4979354;28;20534;-83
2024/01/01 08:41:29;;;;;;;0.52;0.30;;;16.40;71.20;;;;;;4992715;28;20048;-83
2024/01/01 08:43:57;;;;;;;0.75;0.45;;;16.40;71.20;;;;;;5008105;28;20069;-84
2024/01/01 08:46:24;;;;;;;0.80;0.65;;;16.40;71.20;;;;;;4995133;28;20057;-84
2024/01/01 08:48:53;;;;;;;0.50;0.40;;;16.40;71.30;;;;;;4992485;28;20155;-84
2024/01/01 08:51:19;;;;;;;0.85;0.60;;;16.40;71.20;;;;;;4972228;28;20054;-85
2024/01/01 08:53:44;;;;;;;0.40;0.30;;;16.40;71.20;;;;;;4954440;28;20534;-84
2024/01/01 08:56:10;;;;;;;1.00;0.40;;;16.40;71.10;;;;;;5001977;28;20137;-84
2024/01/01 08:58:36;;;;;;;0.47;0.47;;;16.40;71.30;;;;;;4999161;28;20516;-84
2024/01/01 09:01:01;;;;;;;0.80;0.47;;;16.40;71.30;;;;;;4999207;28;20100;-84
2024/01/01 09:03:30;;;;;;;1.25;0.40;;;16.40;71.50;;;;;;4976319;28;20404;-84
2024/01/01 09:05:58;;;;;;;0.90;0.50;;;16.40;71.20;;;;;;4998642;28;20133;-83
2024/01/01 09:08:24;;;;;;;0.75;0.40;;;16.40;71.50;;;;;;4984614;28;20084;-83
2024/01/01 09:10:50;;;;;;;0.73;0.50;;;16.40;71.20;;;;;;4962755;28;20045;-83
2024/01/01 09:13:15;;;;;;;0.60;0.32;;;16.40;72.00;;;;;;4996131;28;20046;-83
2024/01/01 09:15:41;;;;;;;0.47;0.47;;;16.40;71.20;;;;;;4977918;28;20103;-83
2024/01/01 09:18:09;;;;;;;0.75;0.70;;;16.40;71.20;;;;;;4966864;28;20512;-84
2024/01/01 09:20:35;;;;;;;0.80;0.55;;;16.40;71.30;;;;;;5015360;28;20680;-83
2024/01/01 09:23:00;;;;;;;0.50;0.50;;;16.40;71.10;;;;;;4994818;28;20049;-83
2024/01/01 09:25:26;;;;;;;0.40;0.40;;;16.40;71.40;;;;;;4995933;28;20451;-83
2024/01/01 09:27:52;;;;;;;0.80;0.50;;;16.40;71.20;;;;;;4991398;28;20109;-83
2024/01/01 09:30:18;;;;;;;0.30;0.30;;;16.40;71.20;;;;;;4986031;28;20044;-84
2024/01/01 09:32:43;;;;;;;0.47;0.43;;;16.40;71.40;;;;;;4954388;28;20042;-83
2024/01/01 09:35:09;;;;;;;1.17;0.50;;;16.40;71.10;;;;;;4977585;28;20124;-83
2024/01/01 09:37:36;;;;;;;0.50;0.40;;;16.40;71.00;;;;;;4994439;28;20046;-82
2024/01/01 09:40:02;;;;;;;1.00;0.40;;;16.50;71.30;;;;;;4988609;28;20046;-84
2024/01/01 09:42:28;;;;;;;0.57;0.40;;;16.40;70.70;;;;;;4988068;28;20111;-85
2024/01/01 09:44:54;;;;;;;0.43;0.30;;;16.40;70.80;;;;;;4980566;28;20092;-85
2024/01/01 09:47:19;;;;;;;0.40;0.40;;;16.40;70.70;;;;;;4992146;28;20041;-84
2024/01/01 09:49:45;;;;;;;0.52;0.30;;;16.40;70.80;;;;;;4977857;28;20096;-85
2024/01/01 09:52:16;;;;;;;1.48;0.50;;;16.40;70.50;;;;;;4984385;28;20038;-84
2024/01/01 09:54:42;;;;;;;0.28;0.20;;;16.50;70.50;;;;;;4978754;28;20046;-85
2024/01/01 09:57:07;;;;;;;0.95;0.82;;;16.50;70.50;;;;;;4976497;28;20064;-86
2024/01/01 09:59:34;;;;;;;0.52;0.45;;;16.50;70.60;;;;;;4962319;28;20050;-85
2024/01/01 10:02:04;;;;;;;0.52;0.40;;;16.50;70.70;;;;;;4972251;28;20069;-85
2024/01/01 10:04:30;;;;;;;0.90;0.30;;;16.50;70.90;;;;;;5006477;28;20051;-85
2024/01/01 10:06:55;;;;;;;0.70;0.65;;;16.50;70.90;;;;;;4978741;28;20050;-85
2024/01/01 10:09:21;;;;;;;0.40;0.40;;;16.60;71.10;;;;;;4976632;28;20034;-85
2024/01/01 10:11:46;;;;;;;0.50;0.30;;;16.60;70.90;;;;;;4970277;28;20496;-87
2024/01/01 10:14:12;;;;;;;0.68;0.40;;;16.60;71.00;;;;;;4974580;28;20133;-88
2024/01/01 10:16:38;;;;;;;0.50;0.50;;;16.60;70.90;;;;;;4964219;28;20038;-86
2024/01/01 10:19:05;;;;;;;0.35;0.30;;;16.60;71.10;;;;;;4963273;28;20137;-86
2024/01/01 10:21:34;;;;;;;0.70;0.40;;;16.60;71.10;;;;;;4993704;28;20042;-89
2024/01/01 10:24:12;;;;;;;0.40;0.40;;;16.60;72.10;;;;;;4945791;28;20045;-88
2024/01/01 10:26:39;;;;;;;0.30;0.25;;;16.60;71.50;;;;;;4981653;28;20042;-88
2024/01/01 10:29:06;;;;;;;0.40;0.30;;;16.60;72.50;;;;;;4978793;28;20046;-88
2024/01/01 10:31:31;;;;;;;0.70;0.40;;;16.60;71.10;;;;;;4993960;28;20492;-87
2024/01/01 10:33:59;;;;;;;0.40;0.30;;;16.60;71.10;;;;;;5005314;28;20045;-88
2024/01/01 10:36:24;;;;;;;0.77;0.40;;;16.60;71.30;;;;;;4998218;28;20037;-86
2024/01/01 10:38:50;;;;;;;0.65;0.43;;;16.60;71.10;;;;;;4978714;28;20120;-89
2024/01/01 10:41:17;;;;;;;0.88;0.40;;;16.60;71.10;;;;;;4970489;28;20050;-86
2024/01/01 10:43:43;;;;;;;0.57;0.50;;;16.60;71.10;;;;;;5013842;28;20052;-86
2024/01/01 10:46:09;;;;;;;0.43;0.28;;;16.60;71.10;;;;;;4979537;28;20124;-85
2024/01/01 10:48:37;;;;;;;0.30;0.20;;;16.60;71.10;;;;;;4995096;28;20516;-86
2024/01/01 10:51:33;;;;;;;0.35;0.20;;;16.60;71.10;;;;;;4993922;28;21460;-86
2024/01/01 10:54:14;;;;;;;0.80;0.50;;;16.60;71.10;;;;;;5008314;28;20103;-87
2024/01/01 10:57:04;;;;;;;0.98;0.47;;;16.60;71.10;;;;;;5012887;28;20046;-85
2024/01/01 11:00:05;;;;;;;0.60;0.40;;;16.60;71.10;;;;;;4993214;28;20045;-86
2024/01/01 11:02:30;;;;;;;0.40;0.28;;;16.60;71.10;;;;;;4988824;28;20092;-81
2024/01/01 11:05:07;;;;;;;0.40;0.30;;;16.70;71.10;;;;;;4980614;28;20524;-81
2024/01/01 11:07:52;;;;;;;0.52;0.30;;;16.70;71.50;;;;;;4996246;28;20105;-81
2024/01/01 11:10:43;;;;;;;0.50;0.22;;;16.70;71.20;;;;;;5014549;28;20061;-81
2024/01/01 11:13:13;;;;;;;1.65;0.30;;;16.70;71.30;;;;;;5011483;28;20566;-81
2024/01/01 11:15:43;;;;;;;1.98;0.30;;;16.70;71.80;;;;;;5000660;28;20083;-81
2024/01/01 11:18:15;;;;;;;0.20;0.20;;;16.70;73.20;;;;;;4997808;28;20108;-82
2024/01/01 11:20:53;;;;;;;1.20;0.40;;;16.70;72.40;;;;;;4992280;28;20115;-81
2024/01/01 11:23:41;;;;;;;0.40;0.30;;;16.70;72.70;;;;;;4973809;28;20085;-81
2024/01/01 11:26:32;;;;;;;0.38;0.30;;;16.70;72.70;;;;;;4995647;28;20407;-81
2024/01/01 11:29:02;;;;;;;0.60;0.20;;;16.70;72.70;;;;;;4994698;28;20492;-81
2024/01/01 11:31:29;;;;;;;0.50;0.30;;;16.70;73.10;;;;;;4995637;28;20034;-81
2024/01/01 11:34:05;;;;;;;1.10;0.45;;;16.70;73.20;;;;;;4991466;28;20119;-81
2024/01/01 11:36:31;;;;;;;0.95;0.30;;;16.70;73.20;;;;;;4991090;28;20563;-82
2024/01/01 11:38:57;;;;;;;0.52;0.25;;;16.80;73.20;;;;;;5001630;28;20137;-81
2024/01/01 11:41:29;;;;;;;0.40;0.30;;;16.70;73.60;;;;;;4971154;28;20979;-81
2024/01/01 11:44:07;;;;;;;1.00;0.40;;;16.80;73.80;;;;;;5017069;28;20038;-81
2024/01/01 11:46:32;;;;;;;2.30;0.30;;;16.80;73.80;;;;;;4998542;28;20061;-81
2024/01/01 11:49:01;;;;;;;2.13;0.40;;;16.80;73.60;;;;;;4975256;28;20484;-81
2024/01/01 11:51:32;;;;;;;0.50;0.30;;;16.80;73.50;;;;;;4990897;28;20034;-82
2024/01/01 11:54:09;;;;;;;0.45;0.30;;;16.80;73.30;;;;;;5016234;28;20046;-82
2024/01/01 11:56:35;;;;;;;0.20;0.20;;;16.80;73.90;;;;;;4987843;28;20484;-81
2024/01/01 11:59:02;;;;;;;0.45;0.20;;;16.80;73.00;;;;;;4995927;28;20070;-81
2024/01/01 12:01:29;;;;;;;0.75;0.30;;;16.80;73.20;;;;;;4976011;28;20065;-82
2024/01/01 12:03:55;;;;;;;0.30;0.10;;;16.80;73.20;;;;;;4993841;28;20054;-82
2024/01/01 12:06:21;;;;;;;0.43;0.22;;;16.90;73.30;;;;;;5014650;28;20041;-81
2024/01/01 12:08:47;;;;;;;0.43;0.20;;;16.90;73.10;;;;;;4998166;28;20668;-82
2024/01/01 12:11:18;;;;;;;0.70;0.30;;;16.90;73.50;;;;;;4999622;28;20033;-82
2024/01/01 12:13:56;;;;;;;0.57;0.20;;;16.80;73.50;;;;;;4972459;28;20404;-82
2024/01/01 12:16:22;;;;;;;0.35;0.30;;;16.90;73.10;;;;;;4988864;28;20128;-82
2024/01/01 12:18:54;;;;;;;0.30;0.30;;;16.90;73.30;;;;;;4994194;28;20042;-82
2024/01/01 12:21:19;;;;;;;0.82;0.40;;;16.90;73.00;;;;;;4994617;28;20249;-82
2024/01/01 12:23:45;;;;;;;0.82;0.47;;;16.90;73.20;;;;;;4981862;28;20049;-82
2024/01/01 12:26:10;;;;;;;1.60;0.40;;;16.90;73.30;;;;;;4980684;28;20251;-82
2024/01/01 12:28:39;;;;;;;0.60;0.30;;;16.90;73.00;;;;;;4994193;28;20042;-81
2024/01/01 12:31:04;;;;;;;0.47;0.30;;;16.90;73.00;;;;;;5007405;28;20649;-85
2024/01/01 12:33:30;;;;;;;0.38;0.30;;;16.90;73.50;;;;;;4996149;28;20068;-82
2024/01/01 12:35:55;;;;;;;0.77;0.30;;;16.90;73.40;;;;;;4988764;28;20531;-82
2024/01/01 12:38:21;;;;;;;0.82;0.30;;;16.90;72.90;;;;;;4988765;28;20034;-83
2024/01/01 12:40:46;;;;;;;0.30;0.20;;;16.90;72.70;;;;;;4994845;28;20042;-85
2024/01/01 12:43:12;;;;;;;0.50;0.30;;;16.90;72.90;;;;;;4976587;28;20092;-85
2024/01/01 12:45:37;;;;;;;0.60;0.32;;;16.90;72.90;;;;;;4996936;28;20053;-86